Time;durP1;ratioP1;P1;durP2;ratioP2;P2;SDS_P1;SDS_P2;PMS_P1;PMS_P2;Temp;Humidity;BMP_temperature;BMP_pressure;BME280_temperature;BME280_humidity;BME280_pressure;Samples;Min_cycle;Max_cycle;Signal;HPM_P1;HPM_P2
2024/01/19 00:00:47;;;;;;;;;30.00;27.25;;;;;2.91;59.51;101309.13;5080401;27;47224;-65
2024/01/19 00:03:12;;;;;;;;;31.25;29.00;;;;;2.97;59.16;101313.69;5069231;27;46301;-66
2024/01/19 00:05:38;;;;;;;;;39.25;32.75;;;;;2.91;59.01;101319.47;5064246;27;45472;-66
2024/01/19 00:08:04;;;;;;;;;32.00;30.25;;;;;2.79;59.81;101313.78;5069315;27;45425;-66
2024/01/19 00:10:32;;;;;;;;;36.75;32.50;;;;;2.85;59.62;101321.81;5070213;27;46202;-65
2024/01/19 00:12:58;;;;;;;;;29.75;27.25;;;;;2.89;59.87;101336.63;5076467;27;45566;-66
2024/01/19 00:15:24;;;;;;;;;34.00;30.50;;;;;2.53;59.19;101287.69;5071700;27;45445;-66
2024/01/19 00:17:49;;;;;;;;;29.75;29.00;;;;;2.82;59.91;101334.59;5067622;27;45810;-65
2024/01/19 00:20:15;;;;;;;;;32.25;29.50;;;;;2.81;59.74;101325.09;5074247;27;46113;-65
2024/01/19 00:22:40;;;;;;;;;31.75;29.75;;;;;2.90;59.92;101333.25;5057530;27;45397;-65
2024/01/19 00:25:06;;;;;;;;;31.25;28.00;;;;;2.79;59.24;101311.19;5074058;27;45346;-66
2024/01/19 00:27:32;;;;;;;;;29.00;24.50;;;;;3.03;59.32;101350.16;5071633;27;45439;-65
2024/01/19 00:29:57;;;;;;;;;31.75;29.50;;;;;3.07;59.96;101353.78;5069711;27;46595;-66
2024/01/19 00:32:23;;;;;;;;;31.25;28.25;;;;;3.07;59.61;101343.44;5059535;27;45444;-66
2024/01/19 00:34:49;;;;;;;;;31.50;29.25;;;;;3.01;59.95;101330.22;5073369;28;45433;-66
2024/01/19 00:37:15;;;;;;;;;37.75;30.25;;;;;3.04;60.10;101332.94;5109422;27;45685;-66
2024/01/19 00:39:40;;;;;;;;;40.00;31.50;;;;;3.17;59.40;101353.34;5076121;27;45531;-66
2024/01/19 00:42:06;;;;;;;;;33.75;27.00;;;;;3.12;60.95;101342.78;5070197;27;45659;-66
2024/01/19 00:44:32;;;;;;;;;34.00;31.25;;;;;3.02;59.99;101335.47;5068084;28;45431;-66
2024/01/19 00:46:58;;;;;;;;;42.25;34.50;;;;;3.05;59.13;101351.13;5073455;27;45522;-66
2024/01/19 00:49:24;;;;;;;;;40.00;34.00;;;;;3.02;60.50;101353.59;5070431;27;45326;-66
2024/01/19 00:51:50;;;;;;;;;41.50;31.25;;;;;3.04;60.29;101353.63;5062610;28;45224;-66
2024/01/19 00:54:15;;;;;;;;;34.00;30.50;;;;;3.01;59.47;101361.28;5074392;28;45460;-66
2024/01/19 00:56:41;;;;;;;;;38.75;30.25;;;;;2.94;60.20;101352.34;5074664;27;45314;-66
2024/01/19 00:59:07;;;;;;;;;40.75;32.75;;;;;3.01;59.98;101363.88;5070108;27;45391;-66
2024/01/19 01:01:32;;;;;;;;;37.50;30.50;;;;;3.04;59.74;101367.47;5067831;27;45602;-66
2024/01/19 01:03:58;;;;;;;;;38.25;33.25;;;;;3.02;59.97;101360.47;5065960;27;45578;-68
2024/01/19 01:06:24;;;;;;;;;40.50;32.00;;;;;3.05;59.69;101368.38;5074893;27;45594;-66
2024/01/19 01:08:54;;;;;;;;;41.25;31.75;;;;;2.87;60.70;101346.06;5080975;27;46775;-66
2024/01/19 01:11:21;;;;;;;;;39.00;32.00;;;;;3.01;59.60;101372.50;5068543;27;45393;-65
2024/01/19 01:13:47;;;;;;;;;37.25;31.25;;;;;2.99;59.41;101369.00;5076541;27;45468;-66
2024/01/19 01:16:13;;;;;;;;;39.50;33.75;;;;;3.02;59.50;101378.59;5075280;27;45578;-67
2024/01/19 01:18:38;;;;;;;;;37.00;32.25;;;;;3.05;59.63;101382.19;5076271;28;46301;-67
2024/01/19 01:21:05;;;;;;;;;34.25;25.25;;;;;3.04;59.82;101382.09;5078519;27;45468;-67
2024/01/19 01:23:31;;;;;;;;;39.50;32.50;;;;;3.04;60.37;101393.38;5078098;27;45420;-67
2024/01/19 01:25:56;;;;;;;;;39.50;34.25;;;;;3.01;59.84;101392.34;5068543;27;45411;-65
2024/01/19 01:28:22;;;;;;;;;41.75;33.75;;;;;2.97;60.19;101396.50;5077578;28;47698;-67
2024/01/19 01:30:47;;;;;;;;;43.25;33.25;;;;;2.94;60.44;101402.44;5112038;27;45739;-65
2024/01/19 01:33:13;;;;;;;;;43.50;35.50;;;;;2.90;59.52;101400.53;5079536;28;45476;-65
2024/01/19 01:35:38;;;;;;;;;35.00;30.75;;;;;2.85;60.29;101396.84;5079418;27;45271;-65
2024/01/19 01:38:05;;;;;;;;;31.00;30.25;;;;;2.87;60.33;101399.50;5076003;28;46780;-65
2024/01/19 01:40:31;;;;;;;;;34.75;31.50;;;;;2.95;59.42;101411.94;5078773;27;45554;-65
2024/01/19 01:43:00;;;;;;;;;35.00;31.25;;;;;2.97;60.29;101419.78;5079118;28;45371;-66
2024/01/19 01:45:27;;;;;;;;;34.50;30.00;;;;;3.04;60.59;101423.50;5078203;28;45480;-67
2024/01/19 01:47:53;;;;;;;;;40.00;33.25;;;;;3.04;59.81;101423.50;5079107;27;45294;-65
2024/01/19 01:50:19;;;;;;;;;34.75;32.50;;;;;3.06;59.66;101424.47;5092718;27;45757;-68
2024/01/19 01:52:45;;;;;;;;;39.75;32.75;;;;;2.99;59.72;101431.09;5066976;28;45495;-66
2024/01/19 01:55:12;;;;;;;;;38.50;33.50;;;;;2.89;59.79;101416.84;5078225;28;45636;-65
2024/01/19 01:57:39;;;;;;;;;40.00;32.00;;;;;2.95;60.25;101430.06;5077848;28;47239;-66
2024/01/19 02:00:08;;;;;;;;;35.00;30.75;;;;;2.95;60.83;101429.19;5078975;28;45456;-66
2024/01/19 02:02:34;;;;;;;;;33.00;30.25;;;;;2.99;60.34;101431.09;5094562;27;45464;-66
2024/01/19 02:05:00;;;;;;;;;35.25;31.25;;;;;2.96;60.45;101439.59;5094759;27;45558;-67
2024/01/19 02:07:26;;;;;;;;;35.25;30.50;;;;;2.54;61.20;101382.56;5077260;28;47641;-66
2024/01/19 02:09:52;;;;;;;;;34.75;31.25;;;;;2.84;61.59;101438.19;5094477;27;45425;-66
2024/01/19 02:12:17;;;;;;;;;27.75;25.25;;;;;2.82;61.07;101442.38;5079080;28;45287;-67
2024/01/19 02:14:43;;;;;;;;;32.50;30.50;;;;;2.85;61.02;101442.50;5079244;27;45334;-68
2024/01/19 02:17:08;;;;;;;;;35.50;29.25;;;;;2.81;60.69;101436.34;5077248;28;47625;-68
2024/01/19 02:19:35;;;;;;;;;32.00;29.75;;;;;2.86;60.06;101450.34;5091868;27;45510;-68
2024/01/19 02:22:02;;;;;;;;;38.25;33.25;;;;;2.78;60.60;101435.31;5069268;28;45439;-67
2024/01/19 02:24:29;;;;;;;;;39.50;33.50;;;;;2.81;60.49;101443.22;5079468;27;45402;-66
2024/01/19 02:26:55;;;;;;;;;33.75;30.00;;;;;2.86;60.81;101444.31;5078785;27;46403;-67
2024/01/19 02:29:21;;;;;;;;;31.75;31.50;;;;;2.71;61.30;101418.66;5078618;27;45511;-67
2024/01/19 02:31:47;;;;;;;;;39.00;33.00;;;;;2.78;61.50;101451.72;5094073;27;45317;-67
2024/01/19 02:34:12;;;;;;;;;39.25;32.00;;;;;2.75;62.21;101447.31;5079127;27;46141;-67
2024/01/19 02:36:38;;;;;;;;;36.50;31.75;;;;;2.74;61.54;101449.81;5093378;27;46537;-66
2024/01/19 02:39:05;;;;;;;;;38.50;33.75;;;;;2.33;61.08;101384.19;5077928;28;45471;-67
2024/01/19 02:41:31;;;;;;;;;31.50;31.00;;;;;2.71;61.93;101455.75;5076604;28;45448;-67
2024/01/19 02:43:57;;;;;;;;;38.50;31.25;;;;;2.62;61.11;101433.75;5078747;27;45612;-67
2024/01/19 02:46:23;;;;;;;;;41.00;32.25;;;;;2.58;61.82;101458.56;5078155;27;45992;-66
2024/01/19 02:48:48;;;;;;;;;38.25;32.75;;;;;2.53;60.62;101454.88;5103778;27;45446;-67
2024/01/19 02:51:14;;;;;;;;;34.50;32.50;;;;;2.63;61.04;101463.94;5062349;28;45447;-67
2024/01/19 02:53:39;;;;;;;;;39.25;35.00;;;;;2.52;62.19;101466.94;5073940;28;45516;-67
2024/01/19 02:56:05;;;;;;;;;34.25;30.00;;;;;2.58;61.74;101462.84;5078122;28;45694;-67
2024/01/19 02:58:31;;;;;;;;;41.00;34.00;;;;;2.57;61.15;101467.16;5093829;27;45661;-68
2024/01/19 03:00:59;;;;;;;;;31.50;29.75;;;;;2.53;62.79;101462.66;5076856;28;45437;-67
2024/01/19 03:03:25;;;;;;;;;35.25;32.25;;;;;2.57;61.39;101471.44;5095526;27;45551;-67
2024/01/19 03:05:50;;;;;;;;;37.00;31.50;;;;;2.59;62.12;101459.44;5078798;27;45561;-67
2024/01/19 03:08:16;;;;;;;;;45.00;34.00;;;;;2.62;60.70;101454.44;5094112;27;45533;-68
2024/01/19 03:10:42;;;;;;;;;37.75;32.00;;;;;2.49;60.38;101445.22;5076582;28;45560;-67
2024/01/19 03:13:07;;;;;;;;;33.25;28.50;;;;;2.53;60.93;101457.47;5078499;27;45244;-66
2024/01/19 03:15:33;;;;;;;;;42.25;33.50;;;;;2.51;61.79;101466.84;5077783;27;45661;-67
2024/01/19 03:17:59;;;;;;;;;41.75;34.75;;;;;2.50;62.05;101463.41;5064591;27;45512;-68
2024/01/19 03:20:24;;;;;;;;;33.50;28.50;;;;;2.50;62.17;101458.22;5073027;27;45741;-67
2024/01/19 03:22:50;;;;;;;;;36.00;32.75;;;;;2.63;61.79;101474.28;5061009;28;45636;-66
2024/01/19 03:25:15;;;;;;;;;37.75;32.50;;;;;2.64;61.63;101481.25;5078565;27;45488;-66
2024/01/19 03:27:41;;;;;;;;;44.50;33.25;;;;;2.58;61.07;101468.03;5078602;27;45441;-67
2024/01/19 03:30:07;;;;;;;;;40.00;33.00;;;;;2.50;61.14;101454.75;5076409;28;45322;-66
2024/01/19 03:32:33;;;;;;;;;36.25;32.00;;;;;2.57;61.65;101482.66;5078120;27;45516;-66
2024/01/19 03:34:58;;;;;;;;;42.75;33.25;;;;;2.50;61.54;101463.41;5068122;27;45372;-68
2024/01/19 03:37:24;;;;;;;;;35.25;31.25;;;;;2.49;61.51;101468.47;5071902;28;45358;-67
2024/01/19 03:39:50;;;;;;;;;33.50;31.00;;;;;2.42;61.79;101462.16;5076357;28;45451;-67
2024/01/19 03:42:15;;;;;;;;;34.00;30.00;;;;;2.48;62.46;101474.47;5076165;27;45561;-66
2024/01/19 03:44:42;;;;;;;;;38.50;29.25;;;;;2.48;62.41;101480.53;5076470;28;45500;-67
2024/01/19 03:47:08;;;;;;;;;36.00;32.00;;;;;2.50;61.72;101484.09;5077670;27;46134;-67
2024/01/19 03:49:34;;;;;;;;;35.75;32.00;;;;;2.58;62.71;101499.06;5077622;27;45746;-66
2024/01/19 03:52:07;;;;;;;;;27.50;23.50;;;;;2.63;62.56;101500.16;5069422;27;45318;-67
2024/01/19 03:54:33;;;;;;;;;33.50;26.00;;;;;2.65;61.31;101503.72;5073041;28;45580;-67
2024/01/19 03:57:02;;;;;;;;;33.50;29.75;;;;;2.58;62.46;101505.13;5094888;27;45553;-66
2024/01/19 03:59:28;;;;;;;;;31.75;28.75;;;;;2.52;62.40;101505.72;5093888;27;45404;-67
2024/01/19 04:01:55;;;;;;;;;43.00;32.25;;;;;2.52;61.62;101510.91;5077353;27;45448;-66
2024/01/19 04:04:21;;;;;;;;;36.25;30.00;;;;;2.51;62.02;101516.00;5077637;27;46445;-67
2024/01/19 04:06:47;;;;;;;;;30.25;26.25;;;;;2.48;62.07;101514.16;5082007;27;45451;-67
2024/01/19 04:09:15;;;;;;;;;36.50;32.00;;;;;2.47;62.43;101504.63;5075866;27;45447;-67
2024/01/19 04:11:42;;;;;;;;;33.00;30.00;;;;;2.51;63.23;101511.69;5092772;27;45448;-66
2024/01/19 04:14:07;;;;;;;;;29.25;24.50;;;;;2.50;62.69;101507.34;5076958;27;45706;-69
2024/01/19 04:16:33;;;;;;;;;31.75;30.25;;;;;2.52;62.13;101510.91;5092545;27;45435;-67
2024/01/19 04:18:59;;;;;;;;;37.00;33.25;;;;;2.54;62.36;101513.56;5078545;27;45467;-67
2024/01/19 04:21:25;;;;;;;;;32.50;27.50;;;;;2.51;62.87;101503.94;5077414;27;45537;-66
2024/01/19 04:23:51;;;;;;;;;38.00;32.25;;;;;2.51;61.72;101509.13;5078067;27;45422;-67
2024/01/19 04:26:16;;;;;;;;;35.75;31.00;;;;;2.52;62.37;101534.19;5084385;27;45470;-67
2024/01/19 04:28:42;;;;;;;;;35.50;30.50;;;;;2.41;62.61;101514.66;5072535;28;45397;-66
2024/01/19 04:31:08;;;;;;;;;36.75;29.75;;;;;2.42;61.96;101525.91;5076752;27;45472;-67
2024/01/19 04:33:34;;;;;;;;;32.00;29.75;;;;;2.46;63.02;101539.03;5075189;27;47486;-67
2024/01/19 04:35:59;;;;;;;;;32.75;29.00;;;;;2.49;62.70;101538.31;5075216;27;45529;-68
2024/01/19 04:38:25;;;;;;;;;35.75;29.75;;;;;2.51;62.95;101534.09;5092594;27;45320;-67
2024/01/19 04:40:51;;;;;;;;;37.50;28.00;;;;;2.39;62.79;101513.72;5093365;27;45410;-67
2024/01/19 04:43:17;;;;;;;;;35.75;28.75;;;;;2.32;62.16;101509.06;5076700;27;46166;-67
2024/01/19 04:45:44;;;;;;;;;36.00;31.75;;;;;2.56;62.78;101542.94;5077336;27;45965;-68
2024/01/19 04:48:09;;;;;;;;;41.00;33.50;;;;;2.43;62.75;101548.38;5078449;27;45935;-67
2024/01/19 04:50:35;;;;;;;;;39.25;32.00;;;;;2.40;63.23;101550.81;5079247;28;45470;-67
2024/01/19 04:53:00;;;;;;;;;31.00;27.00;;;;;2.37;63.27;101551.53;5075922;27;47782;-68
2024/01/19 04:55:26;;;;;;;;;34.25;28.75;;;;;2.42;63.46;101551.75;5077572;28;45483;-68
2024/01/19 04:57:51;;;;;;;;;31.00;26.75;;;;;2.36;62.72;101533.38;5080797;27;45483;-66
2024/01/19 05:00:17;;;;;;;;;37.50;31.25;;;;;2.40;63.19;101543.94;5080202;27;45483;-67
2024/01/19 05:02:43;;;;;;;;;33.50;31.25;;;;;2.43;63.39;101558.72;5079845;28;45891;-67
2024/01/19 05:05:09;;;;;;;;;40.00;29.75;;;;;2.44;63.54;101552.72;5079944;27;45538;-67
2024/01/19 05:07:34;;;;;;;;;31.25;30.25;;;;;2.37;63.47;101558.41;5078819;27;45780;-68
2024/01/19 05:10:00;;;;;;;;;39.75;31.25;;;;;2.32;62.97;101550.44;5081629;27;45492;-67
2024/01/19 05:12:26;;;;;;;;;35.50;29.25;;;;;2.39;63.14;101565.41;5081105;27;45718;-68
2024/01/19 05:14:51;;;;;;;;;40.50;34.25;;;;;2.44;62.89;101581.16;5080023;27;45303;-67
2024/01/19 05:17:18;;;;;;;;;33.50;31.50;;;;;2.37;62.38;101576.50;5079891;28;45325;-68
2024/01/19 05:19:44;;;;;;;;;37.25;31.00;;;;;2.36;63.41;101585.97;5096907;27;45459;-67
2024/01/19 05:22:10;;;;;;;;;28.50;26.75;;;;;2.36;63.38;101587.66;5096088;27;46477;-68
2024/01/19 05:24:44;;;;;;;;;36.00;32.00;;;;;2.37;63.38;101589.44;5079603;27;45370;-69
2024/01/19 05:27:10;;;;;;;;;35.00;30.75;;;;;2.42;63.05;101604.38;5065375;27;45454;-67
2024/01/19 05:29:36;;;;;;;;;33.00;30.75;;;;;2.36;63.69;101590.25;5079574;28;45321;-66
2024/01/19 05:32:02;;;;;;;;;36.25;31.25;;;;;2.46;62.83;101606.28;5077246;27;47657;-67
2024/01/19 05:34:28;;;;;;;;;33.00;32.25;;;;;2.50;62.61;101621.13;5079397;27;45489;-67
2024/01/19 05:36:54;;;;;;;;;40.50;30.25;;;;;2.50;63.53;101609.91;5079821;27;45528;-67
2024/01/19 05:39:20;;;;;;;;;35.00;31.75;;;;;2.42;63.15;101588.84;5080237;28;45337;-66
2024/01/19 05:41:45;;;;;;;;;37.25;31.50;;;;;2.57;63.37;101614.56;5096365;27;46571;-67
2024/01/19 05:44:12;;;;;;;;;42.25;33.00;;;;;2.47;63.38;101610.66;5077758;27;45463;-67
2024/01/19 05:46:38;;;;;;;;;37.00;32.00;;;;;2.46;62.77;101616.63;5079888;27;45428;-67
2024/01/19 05:49:04;;;;;;;;;38.00;33.50;;;;;2.44;63.66;101618.22;5080232;28;45432;-67
2024/01/19 05:51:30;;;;;;;;;38.50;32.75;;;;;2.10;63.06;101572.63;5095027;27;48088;-68
2024/01/19 05:53:57;;;;;;;;;38.50;32.75;;;;;2.22;63.20;101595.63;5079100;28;45575;-67
2024/01/19 05:56:22;;;;;;;;;36.75;32.75;;;;;2.40;63.13;101628.38;5094598;27;45479;-68
2024/01/19 05:58:48;;;;;;;;;38.75;32.00;;;;;2.34;63.16;101626.38;5077872;28;45541;-67
2024/01/19 06:01:13;;;;;;;;;38.00;31.25;;;;;2.45;63.90;101637.25;5080648;27;46153;-68
2024/01/19 06:03:40;;;;;;;;;32.25;31.25;;;;;2.43;63.46;101633.69;5095239;27;45466;-67
2024/01/19 06:06:06;;;;;;;;;39.50;35.00;;;;;2.41;63.69;101635.31;5076424;27;45436;-67
2024/01/19 06:08:32;;;;;;;;;42.00;35.25;;;;;2.38;62.93;101633.47;5076238;28;45472;-67
2024/01/19 06:10:58;;;;;;;;;42.00;33.75;;;;;2.38;63.25;101648.09;5080479;28;45615;-68
2024/01/19 06:13:24;;;;;;;;;43.50;35.75;;;;;2.20;63.27;101636.00;5075529;28;45452;-67
2024/01/19 06:15:50;;;;;;;;;45.75;36.25;;;;;2.18;63.85;101640.22;5070767;28;45483;-68
2024/01/19 06:18:16;;;;;;;;;41.50;33.75;;;;;2.19;64.87;101648.88;5078900;27;45371;-67
2024/01/19 06:20:42;;;;;;;;;47.00;35.50;;;;;2.22;64.91;101660.25;5077904;28;46677;-66
2024/01/19 06:23:11;;;;;;;;;45.00;36.25;;;;;2.27;63.79;101663.94;5078960;27;45296;-67
2024/01/19 06:25:37;;;;;;;;;36.00;34.75;;;;;2.30;64.23;101670.97;5074289;27;45367;-69
2024/01/19 06:28:04;;;;;;;;;42.50;33.50;;;;;2.25;64.55;101656.91;5068759;28;45516;-66
2024/01/19 06:30:29;;;;;;;;;47.00;36.50;;;;;2.29;64.34;101658.84;5077150;27;46736;-68
2024/01/19 06:32:55;;;;;;;;;46.50;37.00;;;;;2.23;63.87;101650.78;5078440;28;45397;-66
2024/01/19 06:35:21;;;;;;;;;42.50;34.00;;;;;2.27;64.56;101674.28;5079164;27;45670;-67
2024/01/19 06:37:47;;;;;;;;;40.50;35.25;;;;;2.21;63.86;101671.41;5077765;28;45365;-66
2024/01/19 06:40:14;;;;;;;;;42.75;35.25;;;;;2.30;64.02;101684.78;5093943;27;47892;-68
2024/01/19 06:42:40;;;;;;;;;45.00;38.25;;;;;2.29;64.84;101695.06;5078147;27;45382;-68
2024/01/19 06:45:06;;;;;;;;;48.75;38.00;;;;;2.24;64.50;101684.47;5094576;27;45438;-67
2024/01/19 06:47:33;;;;;;;;;47.00;36.50;;;;;2.26;63.96;101697.50;5095535;27;45511;-68
2024/01/19 06:49:58;;;;;;;;;41.00;34.75;;;;;2.12;64.27;101682.16;5079012;27;46588;-67
2024/01/19 06:52:24;;;;;;;;;41.50;33.75;;;;;2.23;64.95;101699.88;5078478;27;45567;-67
2024/01/19 06:54:49;;;;;;;;;47.25;35.25;;;;;2.23;65.39;101710.22;5078051;27;45474;-67
2024/01/19 06:57:15;;;;;;;;;45.33;34.00;;;;;2.18;65.56;101703.94;5078355;28;45377;-68
2024/01/19 06:59:41;;;;;;;;;45.50;37.75;;;;;2.19;65.19;101714.38;5077520;27;45345;-67
2024/01/19 07:02:07;;;;;;;;;40.75;34.75;;;;;2.19;65.02;101713.50;5078196;27;45445;-67
2024/01/19 07:04:33;;;;;;;;;49.75;36.00;;;;;2.16;65.17;101701.31;5077210;28;45415;-66
2024/01/19 07:06:59;;;;;;;;;41.25;37.00;;;;;2.13;65.33;101714.91;5077368;28;45523;-69
2024/01/19 07:09:26;;;;;;;;;42.75;35.25;;;;;2.16;64.32;101724.56;5077389;27;46042;-68
2024/01/19 07:11:52;;;;;;;;;42.33;34.67;;;;;2.17;64.58;101723.75;5076915;27;45435;-67
2024/01/19 07:14:18;;;;;;;;;48.33;40.00;;;;;2.16;64.04;101729.72;5078086;28;45370;-68
2024/01/19 07:16:44;;;;;;;;;51.00;39.00;;;;;2.03;64.29;101710.09;5077036;28;45436;-68
2024/01/19 07:19:10;;;;;;;;;47.75;37.50;;;;;2.08;64.82;101718.97;5076373;28;45358;-68
2024/01/19 07:21:45;;;;;;;;;48.00;35.00;;;;;2.14;65.70;101731.34;5076071;27;45596;-68
2024/01/19 07:24:11;;;;;;;;;42.67;34.67;;;;;2.06;65.23;101741.25;5077341;27;45460;-67
2024/01/19 07:26:38;;;;;;;;;41.33;33.33;;;;;2.08;64.93;101733.59;5097957;27;45459;-67
2024/01/19 07:29:06;;;;;;;;;47.33;37.67;;;;;2.11;64.76;101734.66;5091584;27;47654;-68
2024/01/19 07:31:36;;;;;;;;;44.50;35.25;;;;;2.10;65.54;101740.63;5076685;27;45429;-69
2024/01/19 07:34:02;;;;;;;;;39.25;35.00;;;;;2.10;65.79;101748.38;5078030;27;45452;-67
2024/01/19 07:36:28;;;;;;;;;40.25;35.25;;;;;2.10;65.21;101737.16;5076536;28;45443;-67
2024/01/19 07:38:54;;;;;;;;;47.33;38.67;;;;;2.18;65.12;101747.88;5076853;27;45415;-66
2024/01/19 07:41:20;;;;;;;;;48.33;36.00;;;;;2.21;65.32;101758.41;5077865;28;45570;-68
2024/01/19 07:43:46;;;;;;;;;48.67;38.00;;;;;2.10;65.40;101744.91;5077443;27;45404;-67
2024/01/19 07:46:14;;;;;;;;;49.67;38.00;;;;;2.22;65.08;101758.47;5077652;28;45456;-67
2024/01/19 07:48:39;;;;;;;;;47.25;38.50;;;;;2.20;64.82;101767.84;5078351;27;46260;-67
2024/01/19 07:51:05;;;;;;;;;43.33;38.00;;;;;2.16;64.83;101759.84;5070322;27;46850;-67
2024/01/19 07:53:31;;;;;;;;;43.00;36.50;;;;;2.22;64.84;101779.16;5077464;27;45378;-67
2024/01/19 07:55:57;;;;;;;;;50.67;38.00;;;;;2.24;64.89;101781.81;5092925;27;45359;-67
2024/01/19 07:58:23;;;;;;;;;42.75;36.25;;;;;2.26;64.96;101782.78;5075848;28;45531;-67
2024/01/19 08:00:49;;;;;;;;;40.50;36.00;;;;;2.30;65.40;101785.63;5077274;27;45459;-66
2024/01/19 08:03:16;;;;;;;;;50.25;39.25;;;;;2.32;64.36;101772.75;5075575;27;45262;-67
2024/01/19 08:05:41;;;;;;;;;47.67;34.00;;;;;2.34;65.09;101781.47;5077080;27;45396;-66
2024/01/19 08:08:07;;;;;;;;;48.67;38.67;;;;;2.43;64.91;101796.59;5075316;27;46321;-66
2024/01/19 08:10:35;;;;;;;;;44.67;38.33;;;;;2.41;65.18;101786.16;5092930;27;45416;-67
2024/01/19 08:13:01;;;;;;;;;43.25;36.50;;;;;2.51;64.61;101801.34;5074709;28;45551;-66
2024/01/19 08:15:28;;;;;;;;;46.25;34.00;;;;;2.51;64.44;101793.56;5108136;27;45551;-66
2024/01/19 08:17:54;;;;;;;;;53.67;41.00;;;;;2.44;64.84;101777.66;5071867;27;46247;-68
2024/01/19 08:20:24;;;;;;;;;51.33;40.00;;;;;2.57;64.40;101805.06;5072627;28;45469;-69
2024/01/19 08:22:50;;;;;;;;;49.00;39.67;;;;;2.75;65.64;101806.00;5067068;28;45465;-67
2024/01/19 08:25:16;;;;;;;;;56.33;43.33;;;;;3.59;63.33;101799.78;5066672;28;45408;-65
2024/01/19 08:27:42;;;;;;;;;54.00;41.33;;;;;4.54;61.62;101815.31;5070580;28;46066;-67
2024/01/19 08:30:09;;;;;;;;;51.00;41.33;;;;;5.16;59.71;101819.69;5108717;27;45499;-67
2024/01/19 08:32:36;;;;;;;;;42.75;32.00;;;;;5.76;58.25;101808.19;5075782;28;45516;-66
2024/01/19 08:35:09;;;;;;;;;55.75;45.00;;;;;6.20;56.32;101809.94;5076092;27;45338;-66
2024/01/19 08:37:39;;;;;;;;;45.50;38.25;;;;;6.96;55.18;101827.38;5071562;28;45565;-67
2024/01/19 08:40:29;;;;;;;;;55.50;44.25;;;;;7.09;53.57;101825.19;5069940;27;45505;-68
2024/01/19 08:42:54;;;;;;;;;53.75;42.00;;;;;7.00;53.92;101820.56;5096839;27;45602;-68
2024/01/19 08:45:20;;;;;;;;;42.00;35.75;;;;;6.77;54.25;101823.25;5091591;27;45574;-66
2024/01/19 08:47:48;;;;;;;;;52.00;41.75;;;;;6.62;53.94;101809.72;5075783;28;46042;-67
2024/01/19 08:50:16;;;;;;;;;46.50;36.00;;;;;6.76;53.61;101823.19;5076057;27;45566;-69
2024/01/19 08:52:42;;;;;;;;;51.00;40.25;;;;;6.71;54.00;101848.19;5076417;27;45508;-67
2024/01/19 08:55:08;;;;;;;;;49.50;42.00;;;;;7.34;53.61;101837.31;5075424;28;45472;-66
2024/01/19 08:57:34;;;;;;;;;49.50;40.25;;;;;8.08;52.16;101830.06;5075305;28;46732;-68
2024/01/19 09:00:00;;;;;;;;;52.00;39.00;;;;;8.61;50.93;101830.75;5074768;28;45456;-67
2024/01/19 09:02:26;;;;;;;;;46.00;38.75;;;;;9.45;49.59;101854.69;5076273;27;45475;-67
2024/01/19 09:04:51;;;;;;;;;49.25;39.50;;;;;10.10;47.68;101849.22;5076627;28;45629;-67
2024/01/19 09:07:20;;;;;;;;;50.00;40.00;;;;;11.26;45.92;101861.09;5076408;28;46147;-68
2024/01/19 09:09:46;;;;;;;;;54.00;42.00;;;;;11.34;44.65;101822.78;5074710;28;45347;-67
2024/01/19 09:12:11;;;;;;;;;47.50;37.50;;;;;12.82;43.32;101854.56;5077613;27;45472;-68
2024/01/19 09:14:37;;;;;;;;;43.00;36.50;;;;;14.14;41.97;101866.16;5092178;27;45424;-67
2024/01/19 09:17:02;;;;;;;;;46.75;38.75;;;;;15.16;38.29;101835.75;5061773;27;45827;-68
2024/01/19 09:19:28;;;;;;;;;44.25;36.75;;;;;16.24;37.38;101848.81;5076038;27;45474;-67
2024/01/19 09:21:54;;;;;;;;;45.75;39.75;;;;;17.27;35.68;101845.56;5076168;27;45576;-68
2024/01/19 09:24:19;;;;;;;;;36.25;33.50;;;;;18.39;33.62;101848.00;5076328;27;45278;-67
2024/01/19 09:26:45;;;;;;;;;40.25;34.00;;;;;19.42;33.16;101856.22;5074730;28;46836;-66
2024/01/19 09:29:11;;;;;;;;;43.75;37.50;;;;;20.37;30.68;101856.25;5076045;27;45680;-67
2024/01/19 09:31:44;;;;;;;;;43.25;35.75;;;;;21.37;30.32;101855.72;5077587;27;45349;-67
2024/01/19 09:34:10;;;;;;;;;43.50;35.25;;;;;22.37;29.25;101852.19;5077646;27;45454;-66
2024/01/19 09:36:35;;;;;;;;;40.00;33.75;;;;;23.17;28.06;101850.59;5076137;27;45404;-67
2024/01/19 09:39:01;;;;;;;;;37.33;33.33;;;;;23.89;26.85;101845.47;5075458;28;45354;-66
2024/01/19 09:41:45;;;;;;;;;40.67;34.00;;;;;24.74;25.77;101847.66;5076233;28;45715;-67
2024/01/19 09:44:12;;;;;;;;;38.67;32.00;;;;;25.40;24.27;101850.34;5095134;27;45494;-66
2024/01/19 09:46:52;;;;;;;;;34.67;30.33;;;;;25.99;23.81;101859.44;5079386;28;46244;-67
2024/01/19 09:49:55;;;;;;;;;45.33;33.33;;;;;26.80;23.07;101852.09;5080443;28;45610;-67
2024/01/19 09:52:59;;;;;;;;;34.67;31.00;;;;;27.64;21.89;101864.03;5065377;28;45559;-66
2024/01/19 09:55:26;;;;;;;;;35.33;29.67;;;;;28.23;20.72;101861.81;5078556;27;45514;-65
2024/01/19 09:57:52;;;;;;;;;35.33;31.00;;;;;28.44;20.94;101861.59;5090542;27;46738;-66
2024/01/19 10:00:19;;;;;;;;;36.00;32.67;;;;;28.96;20.30;101861.38;5080004;27;45516;-66
2024/01/19 10:02:53;;;;;;;;;36.33;33.33;;;;;29.53;19.71;101866.16;5095989;27;45471;-65
2024/01/19 10:05:20;;;;;;;;;33.67;31.33;;;;;30.05;19.29;101867.53;5078580;27;45599;-65
2024/01/19 10:07:48;;;;;;;;;37.67;33.00;;;;;30.34;18.64;101873.84;5094327;27;47029;-67
2024/01/19 10:10:19;;;;;;;;;34.33;29.67;;;;;30.79;18.25;101875.41;5078868;27;45444;-66
2024/01/19 10:12:44;;;;;;;;;33.67;31.67;;;;;31.28;17.96;101885.69;5078974;27;45305;-67
2024/01/19 10:15:14;;;;;;;;;32.00;30.00;;;;;31.78;17.71;101885.94;5079301;27;45535;-65
2024/01/19 10:17:41;;;;;;;;;37.00;31.67;;;;;32.12;17.40;101886.31;5077329;27;46289;-66
2024/01/19 10:20:11;;;;;;;;;38.67;32.33;;;;;32.22;16.39;101887.38;5094132;27;45527;-66
2024/01/19 10:22:36;;;;;;;;;35.33;32.33;;;;;32.36;16.02;101869.25;5078344;28;45385;-66
2024/01/19 10:25:10;;;;;;;;;36.00;33.00;;;;;32.17;16.23;101870.56;5079050;27;45463;-67
2024/01/19 10:27:52;;;;;;;;;36.67;31.67;;;;;32.45;16.23;101872.16;5064753;28;46113;-67
2024/01/19 10:30:25;;;;;;;;;36.33;33.00;;;;;32.88;15.59;101874.44;5078565;28;45483;-67
2024/01/19 10:33:04;;;;;;;;;35.33;31.33;;;;;33.02;15.58;101880.69;5078729;27;45487;-66
2024/01/19 10:35:30;;;;;;;;;37.67;31.67;;;;;32.83;15.22;101879.34;5078216;27;45412;-66
2024/01/19 10:38:06;;;;;;;;;35.67;31.00;;;;;33.08;15.94;101883.84;5077852;27;45477;-67
2024/01/19 10:40:34;;;;;;;;;34.33;32.33;;;;;33.49;15.12;101881.69;5078303;27;45291;-67
2024/01/19 10:43:00;;;;;;;;;41.67;35.00;;;;;33.56;14.92;101882.94;5078430;27;45412;-67
2024/01/19 10:45:28;;;;;;;;;43.33;35.00;;;;;33.73;14.62;101885.22;5094098;27;45424;-66
2024/01/19 10:48:03;;;;;;;;;42.00;35.33;;;;;33.43;14.38;101868.56;5078116;27;46061;-67
2024/01/19 10:50:30;;;;;;;;;40.67;33.67;;;;;33.33;14.39;101880.13;5069587;28;45552;-66
2024/01/19 10:53:02;;;;;;;;;42.00;35.67;;;;;32.87;14.96;101888.16;5077588;27;45582;-66
2024/01/19 10:55:29;;;;;;;;;36.00;32.67;;;;;32.85;14.83;101892.81;5077941;27;45871;-66
2024/01/19 10:58:12;;;;;;;;;36.67;32.33;;;;;32.89;14.48;101878.91;5077916;27;46051;-66
2024/01/19 11:00:44;;;;;;;;;30.33;29.67;;;;;33.07;14.89;101873.97;5077616;27;45433;-67
2024/01/19 11:03:09;;;;;;;;;40.33;32.00;;;;;33.56;14.93;101872.97;5079239;27;45594;-67
2024/01/19 11:05:35;;;;;;;;;35.33;31.33;;;;;33.93;14.55;101877.34;5093512;27;45268;-67
2024/01/19 11:08:03;;;;;;;;;31.67;30.33;;;;;34.56;13.79;101875.03;5077639;27;46260;-67
2024/01/19 11:10:30;;;;;;;;;33.00;30.33;;;;;35.12;13.91;101872.22;5076363;28;45464;-68
2024/01/19 11:13:03;;;;;;;;;34.00;31.00;;;;;35.61;13.49;101875.34;5078015;27;45542;-69
2024/01/19 11:15:44;;;;;;;;;27.33;25.67;;;;;35.83;13.27;101863.44;5064693;27;45540;-67